createdAt,value
2018-09-05T00:02:08.803Z,17.57
2018-09-05T00:04:35.868Z,19.77
2018-09-05T00:07:02.814Z,15.10
2018-09-05T00:09:29.831Z,16.30
2018-09-05T00:11:57.220Z,14.53
2018-09-05T00:14:24.221Z,22.40
2018-09-05T00:16:51.199Z,20.67
2018-09-05T00:19:18.544Z,17.40
2018-09-05T00:21:45.610Z,19.97
2018-09-05T00:24:12.596Z,16.87
2018-09-05T00:26:39.577Z,21.77
2018-09-05T00:29:06.571Z,18.70
2018-09-05T00:31:33.529Z,16.93
2018-09-05T00:34:00.509Z,16.80
2018-09-05T00:36:27.450Z,17.53
2018-09-05T00:38:54.380Z,22.83
2018-09-05T00:41:21.628Z,20.33
2018-09-05T00:43:48.555Z,20.10
2018-09-05T00:46:15.540Z,17.93
2018-09-05T00:48:42.547Z,20.10
2018-09-05T00:51:09.483Z,17.90
2018-09-05T00:53:36.458Z,18.83
2018-09-05T00:56:03.993Z,16.97
2018-09-05T00:58:31.042Z,18.50
2018-09-05T01:00:57.993Z,19.30
2018-09-05T01:03:25.298Z,20.07
2018-09-05T01:05:52.265Z,21.30
2018-09-05T01:08:19.509Z,21.53
2018-09-05T01:10:46.642Z,18.80
2018-09-05T01:13:13.576Z,21.90
2018-09-05T01:15:40.964Z,20.60
2018-09-05T01:18:08.317Z,27.30
2018-09-05T01:20:35.365Z,20.93
2018-09-05T01:23:02.318Z,19.77
2018-09-05T01:25:29.788Z,24.63
2018-09-05T01:27:56.775Z,21.70
2018-09-05T01:30:26.248Z,21.00
2018-09-05T01:32:53.519Z,23.83
2018-09-05T01:35:20.558Z,23.17
2018-09-05T01:37:47.513Z,32.40
2018-09-05T01:40:14.949Z,20.30
2018-09-05T01:42:41.927Z,22.27
2018-09-05T01:45:08.891Z,20.60
2018-09-05T01:47:36.125Z,20.60
2018-09-05T01:50:03.082Z,22.77
2018-09-05T01:52:30.076Z,28.13
2018-09-05T01:54:57.431Z,22.63
2018-09-05T01:57:24.443Z,21.50
2018-09-05T01:59:51.432Z,27.70
2018-09-05T02:02:18.753Z,27.70
2018-09-05T02:04:45.712Z,24.30
2018-09-05T02:07:40.702Z,26.30
2018-09-05T02:10:07.649Z,24.60
2018-09-05T02:12:34.760Z,24.47
2018-09-05T02:15:01.801Z,31.20
2018-09-05T02:17:28.778Z,29.27
2018-09-05T02:19:55.759Z,27.40
2018-09-05T02:22:22.773Z,24.50
2018-09-05T02:24:49.718Z,25.77
2018-09-05T02:27:16.698Z,28.37
2018-09-05T02:29:43.984Z,31.73
2018-09-05T02:32:11.005Z,31.17
2018-09-05T02:34:37.960Z,36.43
2018-09-05T02:37:04.990Z,35.10
2018-09-05T02:39:31.986Z,37.47
2018-09-05T02:41:58.982Z,35.30
2018-09-05T02:44:26.345Z,37.37
2018-09-05T02:46:53.322Z,46.03
2018-09-05T02:49:20.376Z,41.50
2018-09-05T02:51:47.631Z,46.00
2018-09-05T02:54:14.659Z,55.40
2018-09-05T02:56:41.706Z,48.27
2018-09-05T02:59:09.219Z,59.57
2018-09-05T03:01:36.211Z,57.87
2018-09-05T03:04:03.183Z,51.43
2018-09-05T03:06:30.447Z,57.13
2018-09-05T03:08:57.413Z,55.30
2018-09-05T03:11:24.333Z,51.93
2018-09-05T03:13:51.298Z,59.33
2018-09-05T03:16:18.257Z,53.17
2018-09-05T03:18:45.250Z,63.03
2018-09-05T03:21:12.313Z,61.67
2018-09-05T03:23:39.323Z,50.67
2018-09-05T03:26:06.211Z,56.80
2018-09-05T03:28:33.274Z,55.10
2018-09-05T03:31:00.201Z,59.80
2018-09-05T03:33:27.213Z,55.67
2018-09-05T03:35:54.507Z,54.10
2018-09-05T03:38:21.530Z,59.37
2018-09-05T03:40:48.535Z,60.23
2018-09-05T03:43:15.537Z,55.87
2018-09-05T03:45:42.515Z,54.30
2018-09-05T03:48:09.469Z,54.60
2018-09-05T03:50:36.853Z,60.67
2018-09-05T03:53:03.848Z,68.13
2018-09-05T03:55:30.811Z,60.03
2018-09-05T03:57:58.031Z,58.33
2018-09-05T04:00:25.072Z,62.90
2018-09-05T04:02:52.048Z,61.50
2018-09-05T04:05:19.367Z,64.87
2018-09-05T04:07:46.379Z,60.83
2018-09-05T04:10:13.351Z,62.23
2018-09-05T04:12:41.282Z,51.90
2018-09-05T04:15:08.922Z,56.73
2018-09-05T04:17:35.929Z,56.47
2018-09-05T04:20:03.241Z,53.27
2018-09-05T04:22:30.518Z,62.03
2018-09-05T04:24:57.541Z,59.70
2018-09-05T04:27:24.865Z,53.97
2018-09-05T04:29:51.881Z,64.90
2018-09-05T04:32:18.766Z,58.53
2018-09-05T04:34:46.084Z,62.47
2018-09-05T04:37:13.041Z,66.77
2018-09-05T04:39:40.041Z,62.40
2018-09-05T04:42:07.467Z,65.20
2018-09-05T04:44:34.485Z,63.60
2018-09-05T04:47:01.461Z,59.77
2018-09-05T04:49:32.286Z,67.63
2018-09-05T04:51:59.300Z,65.53
2018-09-05T04:54:26.279Z,62.57
2018-09-05T04:56:53.906Z,64.30
2018-09-05T04:59:20.915Z,59.10
2018-09-05T05:01:47.930Z,74.33
2018-09-05T05:04:15.154Z,63.57
2018-09-05T05:06:42.123Z,55.90
2018-09-05T05:09:10.626Z,61.30
2018-09-05T05:11:38.133Z,56.20
2018-09-05T05:14:05.347Z,51.93
2018-09-05T05:16:32.343Z,45.87
2018-09-05T05:18:59.597Z,44.80
2018-09-05T05:21:26.560Z,43.73
2018-09-05T05:23:53.561Z,46.87
2018-09-05T05:26:20.619Z,47.87
2018-09-05T05:28:47.670Z,43.57
2018-09-05T05:31:14.663Z,42.93
2018-09-05T05:33:41.653Z,40.00
2018-09-05T05:36:08.667Z,34.20
2018-09-05T05:38:35.674Z,43.40
2018-09-05T05:41:02.960Z,36.47
2018-09-05T05:43:29.897Z,41.67
2018-09-05T05:45:56.915Z,32.50
2018-09-05T05:48:24.076Z,34.77
2018-09-05T05:50:51.023Z,38.80
2018-09-05T05:53:17.969Z,59.43
2018-09-05T05:55:45.120Z,38.40
2018-09-05T05:58:12.132Z,40.47
2018-09-05T06:00:39.140Z,34.97
2018-09-05T06:03:06.108Z,38.27
2018-09-05T06:05:33.074Z,32.53
2018-09-05T06:08:00.117Z,33.17
2018-09-05T06:10:27.591Z,38.20
2018-09-05T06:12:56.340Z,42.13
2018-09-05T06:15:23.939Z,31.57
2018-09-05T06:17:50.940Z,30.00
2018-09-05T06:20:17.906Z,28.43
2018-09-05T06:22:45.025Z,29.90
2018-09-05T06:25:12.268Z,37.40
2018-09-05T06:27:39.277Z,26.93
2018-09-05T06:30:06.238Z,39.60
2018-09-05T06:32:33.513Z,27.27
2018-09-05T06:35:00.497Z,28.97
2018-09-05T06:37:27.504Z,27.87
2018-09-05T06:39:54.568Z,26.40
2018-09-05T06:42:21.649Z,29.43
2018-09-05T06:44:48.712Z,34.97
2018-09-05T06:47:16.012Z,34.17
2018-09-05T06:49:42.958Z,26.97
2018-09-05T06:52:09.944Z,30.07
2018-09-05T06:54:37.217Z,27.27
2018-09-05T06:57:04.142Z,23.57
2018-09-05T06:59:31.077Z,35.03
2018-09-05T07:01:58.083Z,33.77
2018-09-05T07:04:25.107Z,32.87
2018-09-05T07:06:52.102Z,22.87
2018-09-05T07:09:19.072Z,21.43
2018-09-05T07:11:46.074Z,21.73
2018-09-05T07:14:13.127Z,25.70
2018-09-05T07:16:40.337Z,18.27
2018-09-05T07:19:08.889Z,23.63
2018-09-05T07:21:36.457Z,19.77
2018-09-05T07:24:05.073Z,17.63
2018-09-05T07:26:32.078Z,24.17
2018-09-05T07:28:59.042Z,18.20
2018-09-05T07:31:26.168Z,25.27
2018-09-05T07:33:53.222Z,22.53
2018-09-05T07:36:20.308Z,37.23
2018-09-05T07:38:47.668Z,14.80
2018-09-05T07:41:14.793Z,15.30
2018-09-05T07:43:41.895Z,15.90
2018-09-05T07:46:08.969Z,13.70
2018-09-05T07:48:36.150Z,19.03
2018-09-05T07:51:03.357Z,23.60
2018-09-05T07:53:30.664Z,16.23
2018-09-05T07:55:57.866Z,19.43
2018-09-05T07:58:24.995Z,15.67
2018-09-05T08:00:52.132Z,17.03
2018-09-05T08:03:19.279Z,18.50
2018-09-05T08:05:46.390Z,17.10
2018-09-05T08:08:13.749Z,15.47
2018-09-05T08:10:40.891Z,15.87
2018-09-05T08:13:07.979Z,16.87
2018-09-05T08:15:35.053Z,24.47
2018-09-05T08:18:02.179Z,16.70
2018-09-05T08:20:29.221Z,15.97
2018-09-05T08:22:56.595Z,14.77
2018-09-05T08:25:23.640Z,27.90
2018-09-05T08:27:50.702Z,25.63
2018-09-05T08:30:18.153Z,11.97
2018-09-05T08:32:45.201Z,13.43
2018-09-05T08:35:12.419Z,13.93
2018-09-05T08:37:39.411Z,14.90
2018-09-05T08:40:06.541Z,11.73
2018-09-05T08:44:03.768Z,14.40
2018-09-05T08:46:30.752Z,14.43
2018-09-05T08:48:57.831Z,15.70
2018-09-05T08:51:25.295Z,16.63
2018-09-05T08:53:52.336Z,22.23
2018-09-05T08:56:19.496Z,15.00
2018-09-05T08:58:46.826Z,12.83
2018-09-05T09:01:13.821Z,13.90
2018-09-05T09:03:40.877Z,16.17
2018-09-05T09:06:08.039Z,18.27
2018-09-05T09:08:35.129Z,18.83
2018-09-05T09:11:02.213Z,17.10
2018-09-05T09:13:29.610Z,10.90
2018-09-05T09:15:56.641Z,14.60
2018-09-05T09:18:23.685Z,15.10
2018-09-05T09:20:53.082Z,12.50
2018-09-05T09:23:20.915Z,16.03
2018-09-05T09:25:48.421Z,15.93
2018-09-05T09:28:15.952Z,10.77
2018-09-05T09:30:43.213Z,14.90
2018-09-05T09:33:10.276Z,14.70
2018-09-05T09:35:37.418Z,8.30
2018-09-05T09:38:04.457Z,6.33
2018-09-05T09:40:31.566Z,16.13
2018-09-05T09:42:59.030Z,10.47
2018-09-05T09:45:26.162Z,7.30
2018-09-05T09:47:53.324Z,9.93
2018-09-05T09:50:20.792Z,8.60
2018-09-05T09:52:47.889Z,17.47
2018-09-05T09:55:15.004Z,14.33
2018-09-05T09:57:42.104Z,8.40
2018-09-05T10:00:10.157Z,6.87
2018-09-05T10:02:43.545Z,9.57
2018-09-05T10:05:16.493Z,8.30
2018-09-05T10:07:49.873Z,9.33
2018-09-05T10:10:23.031Z,10.10
2018-09-05T10:12:51.429Z,12.23
2018-09-05T10:15:24.379Z,10.70
2018-09-05T10:17:57.597Z,7.50
2018-09-05T10:20:24.664Z,8.43
2018-09-05T10:22:51.818Z,7.60
2018-09-05T10:25:19.199Z,12.80
2018-09-05T10:27:46.298Z,10.60
2018-09-05T10:30:13.362Z,12.80
2018-09-05T10:32:40.681Z,8.73
2018-09-05T10:35:07.791Z,9.67
2018-09-05T10:37:34.870Z,9.43
2018-09-05T10:40:02.209Z,23.60
2018-09-05T10:42:29.309Z,8.40
2018-09-05T10:44:56.383Z,7.20
2018-09-05T10:47:23.813Z,6.97
2018-09-05T10:49:50.836Z,10.30
2018-09-05T10:52:18.035Z,8.23
2018-09-05T10:54:45.131Z,7.83
2018-09-05T10:57:12.232Z,12.70
2018-09-05T10:59:39.292Z,11.50
2018-09-05T11:02:06.713Z,9.87
2018-09-05T11:04:33.793Z,11.03
2018-09-05T11:07:00.901Z,9.10
2018-09-05T11:09:28.108Z,12.83
2018-09-05T11:11:55.201Z,9.93
2018-09-05T11:14:22.258Z,13.83
2018-09-05T11:16:49.715Z,12.13
2018-09-05T11:19:16.751Z,11.70
2018-09-05T11:21:43.814Z,9.70
2018-09-05T11:24:11.243Z,13.20
2018-09-05T11:26:38.429Z,17.83
2018-09-05T11:29:05.588Z,14.43
2018-09-05T11:31:32.689Z,10.03
2018-09-05T11:33:59.783Z,11.60
2018-09-05T11:36:26.824Z,16.47
2018-09-05T11:38:53.900Z,17.53
2018-09-05T11:41:21.358Z,16.73
2018-09-05T11:43:51.446Z,20.83
2018-09-05T11:46:18.720Z,11.67
2018-09-05T11:48:45.777Z,16.17
2018-09-05T11:51:12.850Z,13.83
2018-09-05T11:53:40.253Z,13.50
2018-09-05T11:56:07.318Z,9.73
2018-09-05T11:58:34.392Z,11.63
2018-09-05T12:01:01.510Z,21.23
2018-09-05T12:03:28.584Z,37.90
2018-09-05T12:05:55.654Z,21.33
2018-09-05T12:08:23.075Z,10.27
2018-09-05T12:10:50.174Z,12.60
2018-09-05T12:13:17.394Z,11.67
2018-09-05T12:15:44.513Z,11.13
2018-09-05T12:18:11.593Z,19.23
2018-09-05T12:20:38.674Z,11.60
2018-09-05T12:23:06.662Z,12.20
2018-09-05T12:25:33.733Z,13.03
2018-09-05T12:28:00.863Z,8.50
2018-09-05T12:30:28.378Z,17.63
2018-09-05T12:32:56.812Z,7.47
2018-09-05T12:35:23.968Z,9.27
2018-09-05T12:37:51.360Z,14.27
2018-09-05T12:40:18.467Z,9.67
2018-09-05T12:42:45.570Z,12.30
2018-09-05T12:45:12.715Z,10.47
2018-09-05T12:47:39.761Z,7.60
2018-09-05T12:50:06.832Z,6.33
2018-09-05T12:52:33.967Z,20.00
2018-09-05T12:55:01.025Z,7.87
2018-09-05T12:57:28.075Z,21.27
2018-09-05T12:59:55.198Z,13.33
2018-09-05T13:02:22.273Z,10.53
2018-09-05T13:04:49.447Z,7.17
2018-09-05T13:07:16.822Z,9.00
2018-09-05T13:09:43.885Z,6.93
2018-09-05T13:12:10.985Z,10.17
2018-09-05T13:14:38.509Z,12.97
2018-09-05T13:17:05.528Z,15.93
2018-09-05T13:19:32.752Z,12.63
2018-09-05T13:21:59.829Z,10.03
2018-09-05T13:24:26.897Z,10.83
2018-09-05T13:26:53.979Z,8.03
2018-09-05T13:29:21.317Z,8.77
2018-09-05T13:31:48.385Z,10.97
2018-09-05T13:34:15.450Z,8.43
2018-09-05T13:36:42.829Z,9.97
2018-09-05T13:39:10.870Z,8.77
2018-09-05T13:41:37.904Z,8.37
2018-09-05T13:44:05.061Z,7.00
2018-09-05T13:46:32.383Z,6.00
2018-09-05T13:48:59.460Z,6.40
2018-09-05T13:51:26.582Z,7.67
2018-09-05T13:53:53.648Z,12.53
2018-09-05T13:56:20.738Z,18.20
2018-09-05T13:58:48.093Z,11.00
2018-09-05T14:01:15.154Z,13.33
2018-09-05T14:03:42.224Z,11.30
2018-09-05T14:06:09.632Z,13.83
2018-09-05T14:08:36.728Z,13.83
2018-09-05T14:11:03.785Z,9.40
2018-09-05T14:13:31.449Z,18.37
2018-09-05T14:15:58.437Z,8.10
2018-09-05T14:18:25.568Z,14.53
2018-09-05T14:20:52.890Z,12.03
2018-09-05T14:23:19.965Z,14.43
2018-09-05T14:25:47.090Z,9.10
2018-09-05T14:28:14.317Z,12.00
2018-09-05T14:30:41.413Z,10.43
2018-09-05T14:33:08.623Z,10.80
2018-09-05T14:35:36.141Z,13.83
2018-09-05T14:38:03.213Z,12.73
2018-09-05T14:40:30.341Z,8.53
2018-09-05T14:42:57.462Z,9.47
2018-09-05T14:45:24.634Z,11.27
2018-09-05T14:47:51.716Z,18.47
2018-09-05T14:50:18.944Z,8.93
2018-09-05T14:52:46.061Z,10.17
2018-09-05T14:55:13.204Z,10.03
2018-09-05T14:57:40.627Z,11.00
2018-09-05T15:00:07.733Z,10.00
2018-09-05T15:02:34.785Z,11.93
2018-09-05T15:05:02.249Z,9.80
2018-09-05T15:07:29.341Z,11.13
2018-09-05T15:09:56.375Z,9.00
2018-09-05T15:12:23.544Z,7.37
2018-09-05T15:14:50.700Z,9.73
2018-09-05T15:17:17.781Z,6.23
2018-09-05T15:19:45.275Z,10.23
2018-09-05T15:22:12.327Z,9.60
2018-09-05T15:24:39.413Z,13.10
2018-09-05T15:27:06.556Z,12.70
2018-09-05T15:29:33.626Z,21.33
2018-09-05T15:32:00.672Z,11.50
2018-09-05T15:34:28.208Z,10.13
2018-09-05T15:36:55.305Z,11.87
2018-09-05T15:39:22.439Z,10.90
2018-09-05T15:41:49.954Z,18.13
2018-09-05T15:44:17.056Z,8.43
2018-09-05T15:46:44.258Z,10.40
2018-09-05T15:49:11.657Z,16.70
2018-09-05T15:51:38.833Z,13.00
2018-09-05T15:54:05.892Z,12.03
2018-09-05T15:56:33.451Z,19.60
2018-09-05T15:59:00.563Z,11.40
2018-09-05T16:01:27.728Z,7.77
2018-09-05T16:03:55.068Z,7.70
2018-09-05T16:06:22.166Z,7.67
2018-09-05T16:08:49.251Z,10.00
2018-09-05T16:11:16.617Z,19.60
2018-09-05T16:13:43.661Z,7.27
2018-09-05T16:16:10.765Z,10.33
2018-09-05T16:18:38.212Z,14.40
2018-09-05T16:21:05.321Z,16.30
2018-09-05T16:23:32.400Z,10.47
2018-09-05T16:25:59.833Z,10.67
2018-09-05T16:28:26.868Z,13.23
2018-09-05T16:30:53.985Z,14.67
2018-09-05T16:33:21.649Z,13.70
2018-09-05T16:35:48.801Z,12.03
2018-09-05T16:38:15.881Z,13.73
2018-09-05T16:40:43.762Z,10.57
2018-09-05T16:43:10.851Z,10.57
2018-09-05T16:45:37.927Z,10.87
2018-09-05T16:48:05.276Z,12.10
2018-09-05T16:50:32.354Z,16.20
2018-09-05T16:52:59.913Z,26.93
2018-09-05T16:55:27.079Z,17.10
2018-09-05T16:57:54.521Z,14.60
2018-09-05T17:00:21.642Z,11.93
2018-09-05T17:02:49.028Z,8.97
2018-09-05T17:05:16.109Z,10.60
2018-09-05T17:07:43.140Z,10.20
2018-09-05T17:10:15.035Z,8.00
2018-09-05T17:12:42.177Z,12.80
2018-09-05T17:15:09.436Z,15.30
2018-09-05T17:17:37.159Z,12.37
2018-09-05T17:20:04.790Z,9.97
2018-09-05T17:22:31.912Z,10.47
2018-09-05T17:24:59.000Z,12.77
2018-09-05T17:27:26.089Z,12.17
2018-09-05T17:29:53.198Z,11.00
2018-09-05T17:32:20.553Z,16.93
2018-09-05T17:34:47.709Z,10.97
2018-09-05T17:37:14.849Z,10.83
2018-09-05T17:39:42.211Z,11.43
2018-09-05T17:42:09.355Z,15.70
2018-09-05T17:44:36.409Z,20.10
2018-09-05T17:47:03.531Z,13.13
2018-09-05T17:49:30.795Z,17.63
2018-09-05T17:51:57.887Z,26.80
2018-09-05T17:54:25.350Z,24.70
2018-09-05T17:56:52.674Z,16.90
2018-09-05T17:59:19.833Z,17.33
2018-09-05T18:01:47.126Z,24.00
2018-09-05T18:04:16.792Z,23.30
2018-09-05T18:06:43.873Z,17.20
2018-09-05T18:09:11.532Z,19.40
2018-09-05T18:11:38.687Z,17.10
2018-09-05T18:14:05.836Z,21.43
2018-09-05T18:16:33.028Z,22.80
2018-09-05T18:19:00.928Z,19.33
2018-09-05T18:21:28.262Z,20.97
2018-09-05T18:23:55.847Z,15.20
2018-09-05T18:26:22.999Z,23.07
2018-09-05T18:28:50.010Z,20.67
2018-09-05T18:31:17.008Z,19.90
2018-09-05T18:33:44.082Z,24.40
2018-09-05T18:36:11.055Z,18.90
2018-09-05T18:38:38.356Z,18.90
2018-09-05T18:41:05.359Z,17.17
2018-09-05T18:43:32.319Z,16.13
2018-09-05T18:45:59.660Z,14.23
2018-09-05T18:48:26.809Z,20.43
2018-09-05T18:50:53.800Z,22.80
2018-09-05T18:53:21.126Z,23.00
2018-09-05T18:55:48.178Z,16.37
2018-09-05T18:58:15.183Z,16.37
2018-09-05T19:00:42.582Z,18.67
2018-09-05T19:03:09.981Z,14.10
2018-09-05T19:05:36.950Z,13.43
2018-09-05T19:08:04.733Z,22.97
2018-09-05T19:10:31.799Z,15.80
2018-09-05T19:12:58.839Z,12.73
2018-09-05T19:15:26.019Z,14.67
2018-09-05T19:17:53.034Z,13.30
2018-09-05T19:20:20.336Z,11.40
2018-09-05T19:22:47.597Z,16.77
2018-09-05T19:25:14.691Z,11.30
2018-09-05T19:27:41.727Z,23.30
2018-09-05T19:30:09.038Z,12.13
2018-09-05T19:32:36.122Z,17.27
2018-09-05T19:35:03.132Z,14.03
2018-09-05T19:37:30.196Z,15.57
2018-09-05T19:39:57.219Z,12.17
2018-09-05T19:42:24.322Z,20.33
2018-09-05T19:44:51.891Z,17.53
2018-09-05T19:47:18.901Z,16.57
2018-09-05T19:49:45.918Z,18.30
2018-09-05T19:52:14.336Z,16.43
2018-09-05T19:54:41.618Z,20.87
2018-09-05T19:57:08.759Z,22.40
2018-09-05T19:59:35.820Z,15.57
2018-09-05T20:02:02.869Z,24.83
2018-09-05T20:04:29.857Z,15.33
2018-09-05T20:06:56.837Z,16.53
2018-09-05T20:09:23.828Z,23.00
2018-09-05T20:11:50.809Z,25.93
2018-09-05T20:14:18.091Z,16.63
2018-09-05T20:16:45.148Z,14.07
2018-09-05T20:19:12.106Z,13.23
2018-09-05T20:21:39.542Z,12.43
2018-09-05T20:24:06.532Z,12.57
2018-09-05T20:26:33.920Z,12.73
2018-09-05T20:29:01.002Z,26.13
2018-09-05T20:31:27.937Z,11.30
2018-09-05T20:33:54.885Z,13.47
2018-09-05T20:36:22.162Z,15.53
2018-09-05T20:38:49.333Z,13.20
2018-09-05T20:41:16.279Z,17.83
2018-09-05T20:43:43.840Z,17.23
2018-09-05T20:46:10.901Z,20.70
2018-09-05T20:48:38.002Z,15.30
2018-09-05T20:51:05.011Z,22.90
2018-09-05T20:53:32.024Z,19.03
2018-09-05T20:55:59.008Z,17.00
2018-09-05T20:58:26.275Z,12.70
2018-09-05T21:00:53.264Z,12.80
2018-09-05T21:03:20.212Z,10.60
2018-09-05T21:05:47.526Z,14.17
2018-09-05T21:08:14.650Z,17.67
2018-09-05T21:10:41.596Z,11.53
2018-09-05T21:13:08.890Z,14.23
2018-09-05T21:15:35.804Z,14.70
2018-09-05T21:18:02.738Z,19.10
2018-09-05T21:20:29.893Z,16.47
2018-09-05T21:22:56.880Z,16.30
2018-09-05T21:25:23.842Z,12.63
2018-09-05T21:27:51.077Z,13.90
2018-09-05T21:30:18.089Z,15.93
2018-09-05T21:32:45.025Z,19.47
2018-09-05T21:35:12.339Z,15.93
2018-09-05T21:37:39.587Z,17.40
2018-09-05T21:40:06.691Z,17.40
2018-09-05T21:42:33.669Z,15.20
2018-09-05T21:45:00.739Z,12.13
2018-09-05T21:47:27.763Z,13.00
2018-09-05T21:49:55.127Z,16.60
2018-09-05T21:52:22.138Z,21.30
2018-09-05T21:54:50.024Z,14.83
2018-09-05T21:57:17.359Z,15.47
2018-09-05T21:59:44.334Z,23.20
2018-09-05T22:02:11.306Z,16.73
2018-09-05T22:04:38.576Z,13.63
2018-09-05T22:07:05.554Z,14.60
2018-09-05T22:09:32.558Z,17.07
2018-09-05T22:11:59.775Z,10.90
2018-09-05T22:14:26.772Z,19.77
2018-09-05T22:16:53.803Z,21.27
2018-09-05T22:19:21.016Z,17.90
2018-09-05T22:21:47.950Z,23.23
2018-09-05T22:24:15.002Z,12.40
2018-09-05T22:26:42.358Z,17.80
2018-09-05T22:29:09.333Z,25.77
2018-09-05T22:31:36.337Z,16.20
2018-09-05T22:34:03.359Z,18.03
2018-09-05T22:36:30.318Z,16.30
2018-09-05T22:38:57.317Z,14.70
2018-09-05T22:41:24.634Z,15.20
2018-09-05T22:44:03.546Z,17.80
2018-09-05T22:46:42.553Z,14.07
2018-09-05T22:51:52.792Z,14.80
2018-09-05T22:54:36.403Z,14.27
2018-09-05T22:57:22.572Z,19.83
2018-09-05T23:00:03.948Z,15.23
2018-09-05T23:02:58.917Z,17.70
2018-09-05T23:05:35.968Z,16.80
2018-09-05T23:08:20.044Z,15.93
2018-09-05T23:10:58.763Z,22.23
2018-09-05T23:13:37.974Z,18.73
2018-09-05T23:16:16.870Z,15.10
2018-09-05T23:19:28.384Z,18.30
2018-09-05T23:21:55.528Z,15.60
2018-09-05T23:24:22.550Z,23.87
2018-09-05T23:26:49.864Z,17.80
2018-09-05T23:29:16.959Z,15.67
2018-09-05T23:31:43.918Z,18.33
2018-09-05T23:34:10.895Z,18.87
2018-09-05T23:36:37.849Z,16.40
2018-09-05T23:39:06.494Z,15.87
2018-09-05T23:41:33.718Z,16.00
2018-09-05T23:44:00.665Z,17.73
2018-09-05T23:46:27.588Z,16.13
2018-09-05T23:48:55.026Z,17.70
2018-09-05T23:51:22.137Z,19.77
2018-09-05T23:53:49.182Z,18.77
2018-09-05T23:56:16.133Z,15.67
2018-09-05T23:58:43.245Z,19.23
